Essex, Illinois
Current Conditions -  °F | °C
As of 4:35 AM on Friday 24 Oct 2014 (Local Time) from KIKK Reporting Station
Overcast Overcast  
Wind Chill: 50°   Ceiling: 4300
Heat Index: 50°   Visibility: 10mi
Dew Point: 47°   Wind: 0mph
Humidity: 87%   Direction: NA
Pressure: 30.07"   Gusts: NA
Location:  41.18°N, 88.19°W
Report Text: KIKK 240935Z AUTO 00000KT 10SM OVC043 10/08 A3007 RMK AO2 T01010081
Loading
Personal Weather Stations






























Interactive Weather Map
Tropical Storm Tracking
New forecast layout! Learn more

10-Day Weather Forecast

Advertisements
Track Severe Weather on mobile